Time;durP1;ratioP1;P1;durP2;ratioP2;P2;SDS_P1;SDS_P2;PMS_P1;PMS_P2;Temp;Humidity;BMP_temperature;BMP_pressure;BME280_temperature;BME280_humidity;BME280_pressure;Samples;Min_cycle;Max_cycle;Signal;HPM_P1;HPM_P2
2023/01/12 00:02:09;;;;;;;43.70;22.08;;;179.70;2252.80;;;;;;5018873;28;20118;-80
2023/01/12 00:04:36;;;;;;;36.28;22.90;;;179.80;2252.80;;;;;;5019096;28;20480;-83
2023/01/12 00:07:05;;;;;;;33.13;20.67;;;179.80;2252.80;;;;;;5018800;28;20026;-82
2023/01/12 00:09:30;;;;;;;41.08;22.73;;;179.50;2252.80;;;;;;5032343;28;20032;-85
2023/01/12 00:11:56;;;;;;;;;;;179.80;2252.80;;;;;;5017900;28;20042;-86
2023/01/12 00:14:21;;;;;;;36.75;22.65;;;180.00;2252.80;;;;;;5019137;28;20317;-85
2023/01/12 00:16:47;;;;;;;;;;;180.00;2252.80;;;;;;5019160;28;20048;-83
2023/01/12 00:19:16;;;;;;;35.88;21.63;;;180.10;2252.80;;;;;;5018890;28;20278;-85
2023/01/12 00:22:12;;;;;;;37.15;21.52;;;180.10;2252.80;;;;;;5018688;28;20033;-85
2023/01/12 00:24:40;;;;;;;37.25;22.92;;;204.80;2252.80;;;;;;5016865;28;20169;-85
2023/01/12 00:27:11;;;;;;;40.97;23.08;;;180.00;2252.80;;;;;;5020881;28;20542;-85
2023/01/12 00:29:37;;;;;;;41.20;22.85;;;180.10;2252.80;;;;;;5021634;28;20017;-85
2023/01/12 00:32:03;;;;;;;;;;;204.80;2252.80;;;;;;5023984;28;20025;-85
2023/01/12 00:34:29;;;;;;;57.65;28.90;;;204.80;2252.80;;;;;;5046505;28;19931;-82
2023/01/12 00:36:54;;;;;;;;;;;204.80;2252.80;;;;;;5023924;28;20380;-84
2023/01/12 00:39:21;;;;;;;39.63;22.65;;;204.90;2252.80;;;;;;5024281;28;19940;-83
2023/01/12 00:47:16;;;;;;;58.53;31.13;;;179.90;2252.80;;;;;;5037085;28;20139;-84
2023/01/12 00:49:42;;;;;;;40.75;24.38;;;180.00;2252.80;;;;;;5027733;28;20025;-82
2023/01/12 00:52:09;;;;;;;;;;;180.10;2252.80;;;;;;5017387;28;20456;-83
2023/01/12 00:54:35;;;;;;;44.67;25.65;;;204.80;2252.80;;;;;;5020979;28;19932;-85
2023/01/12 00:57:01;;;;;;;;;;;204.80;2252.80;;;;;;5023731;28;20045;-84
2023/01/12 00:59:27;;;;;;;40.33;23.33;;;204.80;2252.80;;;;;;5026619;28;19996;-85
2023/01/12 01:01:53;;;;;;;42.97;25.80;;;180.10;2252.80;;;;;;5029956;28;20025;-84
2023/01/12 01:04:19;;;;;;;;;;;180.10;2252.80;;;;;;5020796;28;20558;-84
2023/01/12 01:06:45;;;;;;;41.40;23.00;;;204.80;2252.80;;;;;;5022239;28;19948;-85
2023/01/12 01:09:10;;;;;;;;;;;204.90;2252.80;;;;;;5025274;28;20025;-85
2023/01/12 01:11:37;;;;;;;38.25;23.25;;;204.90;2252.80;;;;;;5020438;28;19952;-83
2023/01/12 01:14:02;;;;;;;40.85;23.85;;;204.80;2252.80;;;;;;5048542;28;20021;-85
2023/01/12 01:16:28;;;;;;;;;;;204.90;2252.80;;;;;;5028639;28;20406;-86
2023/01/12 01:18:55;;;;;;;45.25;27.15;;;204.90;2252.80;;;;;;5022843;28;20351;-86
2023/01/12 01:21:20;;;;;;;49.22;27.20;;;205.00;2252.80;;;;;;5021091;28;20030;-86
2023/01/12 01:23:46;;;;;;;;;;;205.00;2252.80;;;;;;5018500;28;20024;-85
2023/01/12 01:26:14;;;;;;;40.95;25.80;;;204.80;2252.80;;;;;;5017035;28;19976;-85
2023/01/12 01:28:40;;;;;;;41.40;25.77;;;204.80;2252.80;;;;;;5040199;28;20028;-85
2023/01/12 01:31:10;;;;;;;;;;;204.80;2252.80;;;;;;5021859;28;20044;-82
2023/01/12 01:33:36;;;;;;;46.97;25.77;;;204.80;2252.80;;;;;;5028213;28;19905;-84
2023/01/12 01:36:02;;;;;;;;;;;204.80;2252.80;;;;;;5021258;28;20036;-85
2023/01/12 01:38:28;;;;;;;46.22;26.80;;;204.80;2252.80;;;;;;5017241;28;20013;-86
2023/01/12 01:40:54;;;;;;;48.20;28.13;;;204.90;2252.80;;;;;;5020731;28;20033;-84
2023/01/12 01:43:21;;;;;;;;;;;204.90;2252.80;;;;;;5046753;28;20036;-84
2023/01/12 01:46:06;;;;;;;48.22;26.83;;;204.80;2252.80;;;;;;5023373;28;19905;-85
2023/01/12 01:48:35;;;;;;;43.63;26.50;;;204.80;2252.80;;;;;;5018968;28;20058;-85
2023/01/12 01:51:06;;;;;;;50.08;27.70;;;204.90;2252.80;;;;;;5029282;28;20043;-85
2023/01/12 01:53:35;;;;;;;45.90;28.20;;;205.00;2252.80;;;;;;5016393;28;20060;-86
2023/01/12 01:56:14;;;;;;;52.25;27.08;;;204.90;2252.80;;;;;;5021840;28;20066;-85
2023/01/12 01:58:48;;;;;;;47.75;25.10;;;204.90;2252.80;;;;;;5018964;28;20399;-85
2023/01/12 02:01:14;;;;;;;43.70;26.45;;;204.90;2252.80;;;;;;5018885;28;20033;-85
2023/01/12 02:03:40;;;;;;;;;;;180.10;2252.80;;;;;;5019324;28;20042;-85
2023/01/12 02:06:07;;;;;;;44.47;27.27;;;180.00;2252.80;;;;;;5019278;28;19959;-85
2023/01/12 02:09:00;;;;;;;45.17;27.80;;;179.90;2252.80;;;;;;5036809;28;20075;-84
2023/01/12 02:17:15;;;;;;;49.72;28.95;;;179.70;2252.80;;;;;;5036683;28;20461;-84
2023/01/12 02:20:02;;;;;;;49.75;29.52;;;179.60;2252.80;;;;;;5036779;28;20021;-85
2023/01/12 02:22:43;;;;;;;50.05;30.40;;;179.50;2252.80;;;;;;5018601;28;20021;-85
2023/01/12 02:25:43;;;;;;;52.30;29.15;;;179.60;2252.80;;;;;;5017236;28;20085;-82
2023/01/12 02:28:50;;;;;;;46.55;26.75;;;179.60;2252.80;;;;;;5004543;28;20043;-83
2023/01/12 02:31:34;;;;;;;43.33;26.27;;;179.60;2252.80;;;;;;5033136;28;20072;-83
2023/01/12 02:34:17;;;;;;;45.10;26.15;;;179.70;2252.80;;;;;;5018732;28;20030;-78
2023/01/12 02:36:49;;;;;;;39.42;25.38;;;179.50;2252.80;;;;;;5011639;28;20026;-84
2023/01/12 02:39:30;;;;;;;45.75;25.85;;;179.60;2252.80;;;;;;5018717;28;20029;-78
2023/01/12 02:42:40;;;;;;;44.55;25.23;;;179.50;2252.80;;;;;;5015186;28;20022;-85
2023/01/12 02:45:38;;;;;;;41.30;26.40;;;179.40;2252.80;;;;;;5006453;28;20021;-78
2023/01/12 02:48:22;;;;;;;41.85;25.38;;;179.60;2252.80;;;;;;5018039;28;20091;-85
2023/01/12 02:51:01;;;;;;;46.30;27.15;;;179.80;2252.80;;;;;;5017641;28;20491;-83
2023/01/12 02:53:33;;;;;;;48.28;25.27;;;179.80;2252.80;;;;;;5018195;28;20028;-85
2023/01/12 02:56:05;;;;;;;44.80;25.08;;;179.80;2252.80;;;;;;5014894;28;20022;-78
2023/01/12 02:58:35;;;;;;;43.47;26.17;;;179.80;2252.80;;;;;;5017866;28;20119;-79
2023/01/12 03:01:03;;;;;;;42.38;25.58;;;179.80;2252.80;;;;;;5035382;28;20093;-78
2023/01/12 03:03:30;;;;;;;41.83;24.38;;;179.80;2252.80;;;;;;5017870;28;20121;-85
2023/01/12 03:05:58;;;;;;;44.08;26.45;;;179.80;2252.80;;;;;;5017639;28;20494;-78
2023/01/12 03:08:27;;;;;;;40.30;25.38;;;179.80;2252.80;;;;;;5015238;28;20117;-78
2023/01/12 03:11:03;;;;;;;44.55;27.92;;;179.90;2252.80;;;;;;5023780;28;20026;-78
2023/01/12 03:13:32;;;;;;;45.53;27.17;;;179.60;2252.80;;;;;;5028379;28;20036;-78
2023/01/12 03:15:58;;;;;;;50.92;27.88;;;179.50;2252.80;;;;;;5034064;28;20030;-85
2023/01/12 03:18:37;;;;;;;57.45;32.17;;;179.70;2252.80;;;;;;5035003;28;20041;-78
2023/01/12 03:21:13;;;;;;;50.95;28.80;;;179.70;2252.80;;;;;;5035229;28;20017;-78
2023/01/12 03:23:51;;;;;;;48.25;28.05;;;179.70;2252.80;;;;;;5030134;28;20018;-83
2023/01/12 03:26:22;;;;;;;54.15;29.92;;;179.60;2252.80;;;;;;5033655;28;20487;-87
2023/01/12 03:28:52;;;;;;;55.10;31.27;;;179.50;2252.80;;;;;;5021877;28;20021;-85
2023/01/12 03:31:18;;;;;;;48.67;27.13;;;179.50;2252.80;;;;;;5022684;28;20068;-79
2023/01/12 03:33:44;;;;;;;;;;;179.40;2252.80;;;;;;5034624;28;20029;-86
2023/01/12 03:36:19;;;;;;;43.45;24.27;;;179.20;2252.80;;;;;;5032874;28;20263;-79
2023/01/12 03:38:57;;;;;;;41.05;24.70;;;179.30;2252.80;;;;;;5033591;28;20037;-78
2023/01/12 03:41:34;;;;;;;45.55;27.23;;;179.30;2252.80;;;;;;5033028;28;20033;-84
2023/01/12 03:44:03;;;;;;;45.42;25.83;;;179.30;2252.80;;;;;;5033334;28;20037;-79
2023/01/12 03:46:37;;;;;;;42.05;25.98;;;179.30;2252.80;;;;;;5034951;28;20032;-79
2023/01/12 03:49:09;;;;;;;49.50;26.92;;;154.40;2252.80;;;;;;5033878;28;20022;-77
2023/01/12 03:51:39;;;;;;;48.05;26.35;;;179.20;2252.80;;;;;;5037392;28;20056;-84
2023/01/12 03:54:07;;;;;;;48.88;28.40;;;179.20;2252.80;;;;;;5037169;28;20033;-84
2023/01/12 03:56:36;;;;;;;41.67;25.20;;;179.40;2252.80;;;;;;5054521;28;20091;-77
2023/01/12 03:59:03;;;;;;;44.70;25.92;;;179.40;2252.80;;;;;;5036754;28;20509;-84
2023/01/12 04:01:29;;;;;;;57.63;28.63;;;179.30;2252.80;;;;;;5035740;28;20056;-83
2023/01/12 04:03:54;;;;;;;53.28;29.70;;;179.20;2252.80;;;;;;5036060;28;20021;-78
2023/01/12 04:06:20;;;;;;;;;;;154.50;2252.80;;;;;;5035728;28;20025;-78
2023/01/12 04:08:46;;;;;;;44.75;27.25;;;154.40;2252.80;;;;;;5036096;28;19943;-78
2023/01/12 04:13:56;;;;;;;54.40;30.60;;;179.30;2252.80;;;;;;5054638;28;19912;-78
2023/01/12 04:16:21;;;;;;;;;;;154.50;2252.80;;;;;;5036864;28;20025;-78
2023/01/12 04:18:47;;;;;;;46.55;27.75;;;154.50;2252.80;;;;;;5036057;28;20003;-79
2023/01/12 04:23:57;;;;;;;42.78;24.85;;;154.40;2252.80;;;;;;5041473;28;19912;-78
2023/01/12 04:26:23;;;;;;;;;;;154.30;2252.80;;;;;;5036004;28;20037;-78
2023/01/12 04:28:49;;;;;;;57.90;29.88;;;154.40;2252.80;;;;;;5036305;28;20321;-83
2023/01/12 04:31:14;;;;;;;;;;;154.30;2252.80;;;;;;5035376;28;20055;-79
2023/01/12 04:33:41;;;;;;;43.30;26.88;;;154.30;2252.80;;;;;;5036214;28;20311;-78
2023/01/12 04:36:10;;;;;;;49.95;28.02;;;154.40;2252.80;;;;;;5036036;28;20060;-83
2023/01/12 04:38:36;;;;;;;48.35;28.05;;;154.50;2252.80;;;;;;5053536;28;20119;-78
2023/01/12 04:41:03;;;;;;;51.78;28.55;;;154.50;2252.80;;;;;;5035951;28;20026;-78
2023/01/12 04:43:28;;;;;;;53.80;29.95;;;179.20;2252.80;;;;;;5035698;28;20021;-84
2023/01/12 04:45:54;;;;;;;;;;;179.40;2252.80;;;;;;5036125;28;20066;-78
2023/01/12 04:48:19;;;;;;;43.45;25.80;;;179.40;2252.80;;;;;;5035861;28;20259;-84
2023/01/12 04:50:45;;;;;;;;;;;179.40;2252.80;;;;;;5036443;28;20025;-84
2023/01/12 04:53:11;;;;;;;63.17;31.73;;;179.40;2252.80;;;;;;5036106;28;20322;-78
2023/01/12 04:55:39;;;;;;;97.82;47.65;;;179.40;2252.80;;;;;;5053411;28;20021;-79
2023/01/12 04:58:05;;;;;;;79.47;41.72;;;179.40;2252.80;;;;;;5035568;28;20131;-79
2023/01/12 05:00:31;;;;;;;58.95;32.38;;;179.40;2252.80;;;;;;5035296;28;20124;-78
2023/01/12 05:02:59;;;;;;;;;;;179.50;2252.80;;;;;;5035927;28;20491;-77
2023/01/12 05:05:26;;;;;;;45.80;25.83;;;179.60;2252.80;;;;;;5035411;28;19908;-78
2023/01/12 05:10:35;;;;;;;55.42;30.30;;;179.30;2252.80;;;;;;5053092;28;20044;-78
2023/01/12 05:13:01;;;;;;;;;;;154.50;2252.80;;;;;;5035882;28;20021;-77
2023/01/12 05:15:27;;;;;;;49.72;28.30;;;154.50;2252.80;;;;;;5035279;28;19991;-78
2023/01/12 05:17:53;;;;;;;59.50;31.17;;;154.50;2252.80;;;;;;5036527;28;20503;-78
2023/01/12 05:20:19;;;;;;;;;;;154.50;2252.80;;;;;;5057924;28;20024;-83
2023/01/12 05:22:47;;;;;;;48.53;27.07;;;154.50;2252.80;;;;;;5057433;28;19951;-83
2023/01/12 05:25:13;;;;;;;49.10;26.60;;;154.20;2252.80;;;;;;5038901;28;20670;-78
2023/01/12 05:27:39;;;;;;;50.10;26.20;;;153.90;2252.80;;;;;;5039363;28;20029;-78
2023/01/12 05:30:05;;;;;;;;;;;154.00;2252.80;;;;;;5039482;28;20510;-78
2023/01/12 05:32:38;;;;;;;43.45;26.65;;;153.90;2252.80;;;;;;5039331;28;19912;-84
2023/01/12 05:35:05;;;;;;;49.35;28.17;;;154.10;2252.80;;;;;;5039320;28;20056;-85
2023/01/12 05:37:31;;;;;;;49.17;28.40;;;154.00;2252.80;;;;;;5039357;28;20044;-85
2023/01/12 05:39:56;;;;;;;;;;;154.10;2252.80;;;;;;5039175;28;20047;-78
2023/01/12 05:45:07;;;;;;;55.60;30.40;;;154.40;2252.80;;;;;;5045008;28;20490;-82
2023/01/12 05:47:33;;;;;;;51.10;27.92;;;154.40;2252.80;;;;;;5039009;28;20029;-84
2023/01/12 05:49:58;;;;;;;;;;;154.50;2252.80;;;;;;5039216;28;20075;-77
2023/01/12 05:52:24;;;;;;;52.40;26.80;;;154.50;2252.80;;;;;;5038943;28;19904;-78
2023/01/12 05:54:50;;;;;;;;;;;154.40;2252.80;;;;;;5039557;28;20040;-77
2023/01/12 05:57:15;;;;;;;44.85;25.63;;;154.20;2252.80;;;;;;5038650;28;19917;-78
2023/01/12 05:59:41;;;;;;;;;;;154.30;2252.80;;;;;;5039403;28;20032;-84
2023/01/12 06:02:10;;;;;;;54.00;28.80;;;154.10;2252.80;;;;;;5038826;28;19905;-83
2023/01/12 06:04:37;;;;;;;52.03;29.92;;;154.20;2252.80;;;;;;5039410;28;20028;-84
2023/01/12 06:07:03;;;;;;;51.38;31.52;;;154.10;2252.80;;;;;;5056588;28;20029;-78
2023/01/12 06:09:28;;;;;;;;;;;154.00;2252.80;;;;;;5039227;28;20037;-78
2023/01/12 06:14:38;;;;;;;49.25;27.10;;;154.00;2252.80;;;;;;5056511;28;20051;-78
2023/01/12 06:17:04;;;;;;;;;;;154.10;2252.80;;;;;;5038670;28;20534;-78
2023/01/12 06:19:30;;;;;;;46.05;24.70;;;154.10;2252.80;;;;;;5038699;28;19905;-78
2023/01/12 06:21:58;;;;;;;;;;;154.10;2252.80;;;;;;5039019;28;20113;-83
2023/01/12 06:24:26;;;;;;;48.25;27.88;;;154.30;2252.80;;;;;;5038679;28;19951;-81
2023/01/12 06:26:53;;;;;;;43.30;26.42;;;154.20;2252.80;;;;;;5038447;28;20017;-84
2023/01/12 06:29:19;;;;;;;60.45;36.10;;;154.50;2252.80;;;;;;5037026;28;20063;-84
2023/01/12 06:31:45;;;;;;;46.47;31.25;;;179.20;2252.80;;;;;;5036332;28;20090;-84
2023/01/12 06:34:11;;;;;;;;;;;179.20;2252.80;;;;;;5036543;28;20471;-83
2023/01/12 06:36:38;;;;;;;39.80;25.70;;;179.20;2252.80;;;;;;5038523;28;19959;-84
2023/01/12 06:39:04;;;;;;;39.60;23.65;;;179.20;2252.80;;;;;;5036310;28;20482;-84
2023/01/12 06:44:14;;;;;;;40.35;23.40;;;179.30;2252.80;;;;;;5040095;28;19959;-84
2023/01/12 06:46:40;;;;;;;;;;;179.30;2252.80;;;;;;5034547;28;20128;-82
2023/01/12 06:49:05;;;;;;;40.33;22.73;;;179.30;2252.80;;;;;;5034363;28;20355;-84
2023/01/12 06:51:31;;;;;;;;;;;179.40;2252.80;;;;;;5036827;28;20135;-84
2023/01/12 06:53:57;;;;;;;40.88;22.98;;;179.40;2252.80;;;;;;5029230;28;20368;-84
2023/01/12 06:56:22;;;;;;;;;;;179.40;2252.80;;;;;;5037317;28;20056;-80
2023/01/12 06:58:48;;;;;;;33.10;19.77;;;179.40;2252.80;;;;;;5037377;28;20003;-83
2023/01/12 07:01:14;;;;;;;;;;;179.40;2252.80;;;;;;5037540;28;20090;-80
2023/01/12 07:03:40;;;;;;;90.15;39.25;;;179.30;2252.80;;;;;;5037487;28;19908;-83
2023/01/12 07:06:05;;;;;;;;;;;179.30;2252.80;;;;;;5037992;28;20582;-84
2023/01/12 07:08:31;;;;;;;81.55;35.03;;;154.50;2252.80;;;;;;5036727;28;19908;-84
2023/01/12 07:11:06;;;;;;;83.28;39.58;;;154.50;2252.80;;;;;;5031234;28;20026;-84
2023/01/12 07:13:33;;;;;;;51.28;29.17;;;179.30;2252.80;;;;;;5027444;28;20030;-84
2023/01/12 07:15:59;;;;;;;66.50;35.40;;;179.50;2252.80;;;;;;5023074;28;20072;-84
2023/01/12 07:18:26;;;;;;;71.00;39.03;;;179.60;2252.80;;;;;;5025048;28;20042;-84
2023/01/12 07:20:53;;;;;;;71.18;38.47;;;179.60;2252.80;;;;;;5029727;28;20063;-79
2023/01/12 07:23:18;;;;;;;76.47;42.70;;;179.70;2252.80;;;;;;5034616;28;20083;-84
2023/01/12 07:25:44;;;;;;;;;;;179.70;2252.80;;;;;;5037508;28;20483;-84
2023/01/12 07:28:10;;;;;;;73.50;39.65;;;179.70;2252.80;;;;;;5036742;28;19904;-83
2023/01/12 07:30:36;;;;;;;;;;;179.70;2252.80;;;;;;5036362;28;20103;-80
2023/01/12 07:33:06;;;;;;;69.45;36.53;;;179.80;2252.80;;;;;;5036635;28;19962;-85
2023/01/12 07:35:32;;;;;;;60.80;35.25;;;179.80;2252.80;;;;;;5034444;28;20025;-80
2023/01/12 07:37:58;;;;;;;;;;;179.80;2252.80;;;;;;5036794;28;20498;-86
2023/01/12 07:40:23;;;;;;;61.95;30.75;;;179.70;2252.80;;;;;;5031024;28;19916;-82
2023/01/12 07:42:57;;;;;;;;;;;179.60;2252.80;;;;;;5035517;28;20128;-83
2023/01/12 07:45:22;;;;;;;52.13;28.20;;;179.50;2252.80;;;;;;5036844;28;19928;-83
2023/01/12 07:47:52;;;;;;;;;;;179.30;2252.80;;;;;;5035989;28;20478;-84
2023/01/12 07:50:18;;;;;;;49.38;24.00;;;179.40;2252.80;;;;;;5036245;28;19928;-76
2023/01/12 07:52:44;;;;;;;;;;;179.50;2252.80;;;;;;5036176;28;20029;-79
2023/01/12 07:55:09;;;;;;;45.58;26.17;;;179.40;2252.80;;;;;;5036646;28;19959;-81
2023/01/12 07:57:36;;;;;;;;;;;179.20;2252.80;;;;;;5032896;28;20055;-79
2023/01/12 08:00:04;;;;;;;38.45;21.63;;;179.30;2252.80;;;;;;5035994;28;19911;-80
2023/01/12 08:02:30;;;;;;;36.72;22.00;;;179.20;2252.80;;;;;;5053851;28;20487;-79
2023/01/12 08:04:55;;;;;;;;;;;179.30;2252.80;;;;;;5054618;28;20044;-81
2023/01/12 08:07:21;;;;;;;40.40;22.88;;;179.40;2252.80;;;;;;5036691;28;20331;-83
2023/01/12 08:09:47;;;;;;;;;;;179.40;2252.80;;;;;;5036102;28;20085;-89
2023/01/12 08:12:12;;;;;;;39.55;24.30;;;179.40;2252.80;;;;;;5047012;28;20338;-81
2023/01/12 08:14:39;;;;;;;;;;;179.40;2252.80;;;;;;5036017;28;20037;-79
2023/01/12 08:17:09;;;;;;;38.28;19.02;;;179.30;2252.80;;;;;;5036164;28;19966;-84
2023/01/12 08:19:41;;;;;;;51.25;25.75;;;179.40;2252.80;;;;;;5053943;28;20094;-78
2023/01/12 08:22:15;;;;;;;46.08;24.80;;;179.60;2252.80;;;;;;5035571;28;20088;-80
2023/01/12 08:24:49;;;;;;;40.78;24.67;;;179.70;2252.80;;;;;;5053563;28;20025;-81
2023/01/12 08:27:18;;;;;;;56.05;29.58;;;179.90;2252.80;;;;;;5034749;28;20023;-83
2023/01/12 08:29:47;;;;;;;60.38;30.30;;;179.80;2252.80;;;;;;5053753;28;20025;-78
2023/01/12 08:32:16;;;;;;;57.05;29.15;;;180.00;2252.80;;;;;;5050692;28;20027;-79
2023/01/12 08:34:45;;;;;;;54.00;32.38;;;180.10;2252.80;;;;;;5035527;28;20028;-79
2023/01/12 08:37:15;;;;;;;52.80;32.75;;;180.00;2252.80;;;;;;5034221;28;20033;-78
2023/01/12 08:39:41;;;;;;;58.95;31.33;;;180.00;2252.80;;;;;;5029451;28;20029;-83
2023/01/12 08:42:07;;;;;;;57.40;31.92;;;180.10;2252.80;;;;;;5035898;28;20048;-80
2023/01/12 08:44:34;;;;;;;;;;;204.80;2252.80;;;;;;5035790;28;20406;-86
2023/01/12 08:47:00;;;;;;;50.47;28.83;;;204.90;2252.80;;;;;;5053251;28;19909;-87
2023/01/12 08:49:27;;;;;;;;;;;204.80;2252.80;;;;;;5035482;28;20033;-79
2023/01/12 08:51:53;;;;;;;51.00;22.33;;;204.90;2252.80;;;;;;5035576;28;19972;-83
2023/01/12 08:54:20;;;;;;;45.97;26.13;;;204.90;2252.80;;;;;;5035245;28;20052;-84
2023/01/12 08:56:48;;;;;;;47.28;25.60;;;204.90;2252.80;;;;;;5035428;28;20057;-83
2023/01/12 08:59:14;;;;;;;48.05;28.00;;;205.00;2252.80;;;;;;5035442;28;20029;-81
2023/01/12 09:01:41;;;;;;;44.65;25.90;;;205.10;2252.80;;;;;;5035078;28;20021;-78
2023/01/12 09:04:07;;;;;;;52.30;27.90;;;205.20;2252.80;;;;;;5050105;28;20037;-77
2023/01/12 09:06:37;;;;;;;;;;;205.40;2252.80;;;;;;5035766;28;20067;-79
2023/01/12 09:09:07;;;;;;;40.92;22.15;;;205.30;2252.80;;;;;;5035059;28;19915;-81
2023/01/12 09:11:34;;;;;;;46.20;22.60;;;205.30;2252.80;;;;;;5052850;28;20021;-81
2023/01/12 09:14:00;;;;;;;41.13;23.77;;;205.30;2252.80;;;;;;5052776;28;20074;-78
2023/01/12 09:16:28;;;;;;;42.38;23.00;;;205.30;2252.80;;;;;;5034961;28;20032;-79
2023/01/12 09:18:54;;;;;;;45.65;24.98;;;205.40;2252.80;;;;;;5034668;28;20032;-77
2023/01/12 09:21:20;;;;;;;;;;;205.50;2252.80;;;;;;5053212;28;20078;-78
2023/01/12 09:23:48;;;;;;;37.67;21.50;;;205.50;2252.80;;;;;;5030128;28;19978;-80
2023/01/12 09:26:17;;;;;;;37.15;21.52;;;205.40;2252.80;;;;;;5035041;28;20395;-77
2023/01/12 09:28:44;;;;;;;39.33;23.42;;;205.50;2252.80;;;;;;5032319;28;20488;-78
2023/01/12 09:31:15;;;;;;;40.22;23.92;;;205.50;2252.80;;;;;;5035225;28;20029;-78
2023/01/12 09:33:41;;;;;;;42.17;25.50;;;205.50;2252.80;;;;;;5034543;28;20060;-79
2023/01/12 09:36:15;;;;;;;42.00;24.60;;;205.50;2252.80;;;;;;5032587;28;20029;-79
2023/01/12 09:38:43;;;;;;;40.17;25.58;;;205.50;2252.80;;;;;;5037749;28;20402;-83
2023/01/12 09:46:57;;;;;;;46.10;28.80;;;205.60;2252.80;;;;;;5035066;28;20025;-80
2023/01/12 09:47:04;;;;;;;50.28;29.00;;;205.70;2252.80;;;;;;5050655;28;20096;-88
2023/01/12 09:49:38;;;;;;;49.08;28.95;;;205.70;2252.80;;;;;;5035235;28;20029;-78
2023/01/12 09:52:21;;;;;;;48.92;27.45;;;230.40;2252.80;;;;;;5052446;28;20017;-82
2023/01/12 09:54:50;;;;;;;37.72;23.05;;;230.40;2252.80;;;;;;5050358;28;20052;-78
2023/01/12 09:57:33;;;;;;;33.83;20.35;;;230.40;2252.80;;;;;;5033638;28;20454;-79
2023/01/12 10:00:10;;;;;;;44.03;20.15;;;230.50;2252.80;;;;;;5034743;28;20482;-76
2023/01/12 10:02:36;;;;;;;;;;;230.60;2252.80;;;;;;5052263;28;20021;-76
2023/01/12 10:05:07;;;;;;;29.88;18.02;;;230.60;2252.80;;;;;;5032830;28;20355;-75
2023/01/12 10:07:34;;;;;;;30.50;17.98;;;230.70;2252.80;;;;;;5036775;28;20040;-75
2023/01/12 10:09:59;;;;;;;31.10;18.98;;;230.80;2252.80;;;;;;5037237;28;20029;-75
2023/01/12 10:12:33;;;;;;;35.97;19.90;;;230.90;2252.80;;;;;;5055383;28;20029;-74
2023/01/12 10:15:10;;;;;;;32.03;17.00;;;231.00;2252.80;;;;;;5051040;28;20379;-77
2023/01/12 10:17:48;;;;;;;31.23;15.30;;;231.00;2252.80;;;;;;5032635;28;20040;-75
2023/01/12 10:20:16;;;;;;;27.42;15.02;;;231.00;2252.80;;;;;;5037120;28;20025;-78
2023/01/12 10:22:52;;;;;;;25.92;15.25;;;231.00;2252.80;;;;;;5032937;28;20068;-76
2023/01/12 10:25:30;;;;;;;26.50;14.18;;;231.00;2252.80;;;;;;5053494;28;20033;-76
2023/01/12 10:28:03;;;;;;;25.55;14.50;;;231.00;2252.80;;;;;;5055017;28;20025;-77
2023/01/12 10:30:35;;;;;;;26.20;14.05;;;231.10;2252.80;;;;;;5034544;28;20256;-77
2023/01/12 10:33:16;;;;;;;23.15;14.05;;;231.10;2252.80;;;;;;5032887;28;20035;-77
2023/01/12 10:36:01;;;;;;;20.73;11.82;;;231.20;2252.80;;;;;;5037117;28;20452;-77
2023/01/12 10:38:31;;;;;;;39.67;16.75;;;231.30;2252.80;;;;;;5032913;28;20098;-77
2023/01/12 10:41:04;;;;;;;27.10;14.68;;;256.10;2252.80;;;;;;5037210;28;20545;-77
2023/01/12 10:43:33;;;;;;;21.67;13.32;;;256.20;2252.80;;;;;;5036575;28;20457;-77
2023/01/12 10:46:04;;;;;;;22.38;12.48;;;256.20;2252.80;;;;;;5055048;28;20021;-77
2023/01/12 10:48:31;;;;;;;22.27;12.93;;;256.10;2252.80;;;;;;5054800;28;20029;-77
2023/01/12 10:51:03;;;;;;;19.02;11.50;;;256.00;2252.80;;;;;;5055258;28;20025;-77
2023/01/12 10:53:42;;;;;;;22.05;13.52;;;256.00;2252.80;;;;;;5037085;28;20459;-76
2023/01/12 10:56:13;;;;;;;28.40;13.75;;;256.10;2252.80;;;;;;5035346;28;20017;-77
2023/01/12 10:58:41;;;;;;;22.65;11.07;;;256.00;2252.80;;;;;;5054874;28;20064;-77
2023/01/12 11:01:07;;;;;;;28.42;15.55;;;256.00;2252.80;;;;;;5040828;28;20027;-77
2023/01/12 11:03:39;;;;;;;22.48;13.00;;;256.00;2252.80;;;;;;5036580;28;20029;-77
2023/01/12 11:06:26;;;;;;;27.35;14.23;;;256.00;2252.80;;;;;;5036886;28;20029;-77
2023/01/12 11:08:54;;;;;;;26.95;14.60;;;256.20;2252.80;;;;;;5025461;28;20045;-77
2023/01/12 11:11:28;;;;;;;25.38;13.88;;;256.40;2252.80;;;;;;5036610;28;20044;-77
2023/01/12 11:13:56;;;;;;;27.67;13.38;;;256.50;2252.80;;;;;;5054584;28;20029;-77
2023/01/12 11:16:37;;;;;;;24.52;14.55;;;256.90;2252.80;;;;;;5035819;28;20493;-77
2023/01/12 11:19:28;;;;;;;21.33;13.43;;;281.70;2278.40;;;;;;5035813;28;20048;-77
2023/01/12 11:22:00;;;;;;;19.08;12.63;;;281.80;2278.40;;;;;;5034089;28;20021;-76
2023/01/12 11:24:41;;;;;;;29.83;19.48;;;282.20;2278.40;;;;;;5036174;28;20072;-77
2023/01/12 11:27:16;;;;;;;25.63;10.73;;;282.30;2278.40;;;;;;5027960;28;20032;-76
2023/01/12 11:30:13;;;;;;;16.08;10.30;;;282.20;2278.40;;;;;;5053797;28;20099;-77
2023/01/12 11:32:48;;;;;;;18.20;11.18;;;282.00;2278.40;;;;;;5035736;28;20116;-77
2023/01/12 11:35:36;;;;;;;17.83;10.05;;;281.90;2278.40;;;;;;5053335;28;20025;-76
2023/01/12 11:38:16;;;;;;;19.88;11.38;;;281.80;2278.40;;;;;;5051775;28;20049;-77
2023/01/12 11:40:44;;;;;;;17.35;11.27;;;281.70;2278.40;;;;;;5053003;28;20111;-77
2023/01/12 11:46:13;;;;;;;18.23;10.73;;;282.00;2278.40;;;;;;5053680;28;20043;-76
2023/01/12 11:48:51;;;;;;;20.27;12.43;;;282.00;2278.40;;;;;;5026431;28;20049;-77
2023/01/12 11:51:17;;;;;;;20.60;12.18;;;282.10;2278.40;;;;;;5032725;28;20040;-76
2023/01/12 11:53:44;;;;;;;25.83;13.73;;;282.00;2278.40;;;;;;5053368;28;20017;-77
2023/01/12 11:56:40;;;;;;;22.58;12.40;;;282.00;2278.40;;;;;;5053338;28;20061;-77
2023/01/12 11:59:17;;;;;;;20.58;12.40;;;281.90;2278.40;;;;;;5048017;28;20036;-76
2023/01/12 12:01:45;;;;;;;20.50;11.95;;;281.90;2278.40;;;;;;5052818;28;20025;-76
2023/01/12 12:04:30;;;;;;;22.65;13.57;;;281.70;2278.40;;;;;;5035314;28;20475;-76
2023/01/12 12:07:16;;;;;;;20.50;13.52;;;281.70;2278.40;;;;;;5046272;28;20087;-77
2023/01/12 12:10:21;;;;;;;23.02;12.95;;;256.90;2252.80;;;;;;5028073;28;20028;-76
2023/01/12 12:13:14;;;;;;;28.65;14.55;;;281.60;2278.40;;;;;;4993677;28;20503;-76
2023/01/12 12:16:07;;;;;;;29.00;16.80;;;256.90;2252.80;;;;;;4982438;28;20041;-77
2023/01/12 12:18:59;;;;;;;23.98;14.32;;;256.90;2252.80;;;;;;5002272;28;20038;-78
2023/01/12 12:21:45;;;;;;;23.17;13.52;;;281.60;2278.40;;;;;;4984660;28;20493;-76
2023/01/12 12:24:25;;;;;;;26.40;15.10;;;281.60;2278.40;;;;;;4998084;28;20068;-76
2023/01/12 12:26:58;;;;;;;21.30;14.50;;;281.70;2278.40;;;;;;4975473;28;20026;-77
2023/01/12 12:29:38;;;;;;;24.45;14.13;;;281.80;2278.40;;;;;;4975568;28;20535;-77
2023/01/12 12:32:35;;;;;;;25.25;12.70;;;282.00;2278.40;;;;;;4976882;28;20026;-76
2023/01/12 12:35:30;;;;;;;18.67;11.25;;;282.10;2278.40;;;;;;4949508;28;20030;-76
2023/01/12 12:38:11;;;;;;;18.52;10.00;;;282.00;2278.40;;;;;;4993438;28;20092;-76
2023/01/12 12:47:06;;;;;;;18.48;8.80;;;281.90;2278.40;;;;;;4933289;29;20086;-75
2023/01/12 12:49:34;;;;;;;18.65;9.73;;;281.80;2278.40;;;;;;4970695;28;20070;-77
2023/01/12 12:52:01;;;;;;;20.30;10.23;;;281.80;2278.40;;;;;;4971502;28;20070;-75
2023/01/12 12:54:27;;;;;;;22.38;10.30;;;281.70;2278.40;;;;;;4971511;28;20402;-76
2023/01/12 12:56:54;;;;;;;17.63;9.82;;;281.70;2278.40;;;;;;4955126;28;20371;-75
2023/01/12 12:59:31;;;;;;;18.42;10.57;;;281.80;2278.40;;;;;;4955888;28;20045;-75
2023/01/12 13:01:59;;;;;;;18.38;11.55;;;281.80;2278.40;;;;;;4952580;28;20054;-74
2023/01/12 13:04:56;;;;;;;52.40;24.73;;;281.70;2278.40;;;;;;4954630;28;20417;-75
2023/01/12 13:07:22;;;;;;;25.60;15.33;;;281.70;2278.40;;;;;;4959652;28;20042;-76
2023/01/12 13:09:48;;;;;;;19.23;12.13;;;281.60;2278.40;;;;;;4955129;28;20848;-78
2023/01/12 13:12:14;;;;;;;21.10;12.45;;;256.90;2252.80;;;;;;4971483;28;20477;-75
2023/01/12 13:14:42;;;;;;;25.50;12.43;;;256.80;2252.80;;;;;;4955040;28;20046;-76